sensor_id;sensor_type;location;lat;lon;timestamp;pressure;altitude;pressure_sealevel;temperature;humidity
13478;BME280;12598;62.382;17.344;2022-12-07T00:00:36;100694.06;;;16.29;20.48
13478;BME280;12598;62.382;17.344;2022-12-07T00:01:39;100699.41;;;16.29;20.32
13478;BME280;12598;62.382;17.344;2022-12-07T00:02:42;100696.59;;;16.31;20.56
13478;BME280;12598;62.382;17.344;2022-12-07T00:03:46;100702.19;;;16.28;20.73
13478;BME280;12598;62.382;17.344;2022-12-07T00:04:49;100696.84;;;16.28;20.50
13478;BME280;12598;62.382;17.344;2022-12-07T00:05:50;100706.69;;;16.27;20.60
13478;BME280;12598;62.382;17.344;2022-12-07T00:06:53;100695.19;;;16.27;20.74
13478;BME280;12598;62.382;17.344;2022-12-07T00:07:54;100673.81;;;16.08;20.67
13478;BME280;12598;62.382;17.344;2022-12-07T00:08:56;100698.81;;;16.26;20.78
13478;BME280;12598;62.382;17.344;2022-12-07T00:09:58;100691.81;;;16.25;20.33
13478;BME280;12598;62.382;17.344;2022-12-07T00:11:11;100686.63;;;16.24;20.46
13478;BME280;12598;62.382;17.344;2022-12-07T00:12:13;100689.00;;;16.27;20.52
13478;BME280;12598;62.382;17.344;2022-12-07T00:13:15;100688.31;;;16.25;20.74
13478;BME280;12598;62.382;17.344;2022-12-07T00:14:17;100675.66;;;16.17;20.80
13478;BME280;12598;62.382;17.344;2022-12-07T00:15:19;100690.28;;;16.23;20.76
13478;BME280;12598;62.382;17.344;2022-12-07T00:16:23;100682.53;;;16.20;20.32
13478;BME280;12598;62.382;17.344;2022-12-07T00:17:26;100695.59;;;16.23;20.63
13478;BME280;12598;62.382;17.344;2022-12-07T00:18:27;100680.59;;;16.22;20.85
13478;BME280;12598;62.382;17.344;2022-12-07T00:19:29;100687.88;;;16.20;20.50
13478;BME280;12598;62.382;17.344;2022-12-07T00:20:31;100693.22;;;16.20;20.55
13478;BME280;12598;62.382;17.344;2022-12-07T00:21:34;100687.19;;;16.18;20.82
13478;BME280;12598;62.382;17.344;2022-12-07T00:22:36;100683.66;;;16.17;20.45
13478;BME280;12598;62.382;17.344;2022-12-07T00:23:39;100689.84;;;16.18;20.56
13478;BME280;12598;62.382;17.344;2022-12-07T00:24:41;100675.22;;;16.12;20.93
13478;BME280;12598;62.382;17.344;2022-12-07T00:25:43;100680.97;;;16.17;20.56
13478;BME280;12598;62.382;17.344;2022-12-07T00:26:44;100689.09;;;16.16;20.57
13478;BME280;12598;62.382;17.344;2022-12-07T00:27:46;100663.53;;;16.04;20.58
13478;BME280;12598;62.382;17.344;2022-12-07T00:28:53;100676.75;;;16.15;20.71
13478;BME280;12598;62.382;17.344;2022-12-07T00:29:55;100684.63;;;16.16;20.50
13478;BME280;12598;62.382;17.344;2022-12-07T00:31:09;100673.25;;;16.14;20.75
13478;BME280;12598;62.382;17.344;2022-12-07T00:32:11;100669.47;;;16.17;20.85
13478;BME280;12598;62.382;17.344;2022-12-07T00:33:12;100682.81;;;16.17;20.83
13478;BME280;12598;62.382;17.344;2022-12-07T00:34:19;100678.88;;;16.11;20.72
13478;BME280;12598;62.382;17.344;2022-12-07T00:35:22;100687.41;;;16.15;20.67
13478;BME280;12598;62.382;17.344;2022-12-07T00:36:24;100673.81;;;16.08;20.76
13478;BME280;12598;62.382;17.344;2022-12-07T00:37:27;100678.72;;;16.13;20.60
13478;BME280;12598;62.382;17.344;2022-12-07T00:38:31;100679.69;;;16.12;20.82
13478;BME280;12598;62.382;17.344;2022-12-07T00:39:33;100681.38;;;16.13;20.90
13478;BME280;12598;62.382;17.344;2022-12-07T00:40:35;100673.66;;;16.10;20.63
13478;BME280;12598;62.382;17.344;2022-12-07T00:41:37;100688.69;;;16.11;20.87
13478;BME280;12598;62.382;17.344;2022-12-07T00:42:39;100695.00;;;16.10;20.69
13478;BME280;12598;62.382;17.344;2022-12-07T00:43:42;100679.13;;;16.08;20.84
13478;BME280;12598;62.382;17.344;2022-12-07T00:44:44;100680.25;;;16.06;20.86
13478;BME280;12598;62.382;17.344;2022-12-07T00:45:45;100674.19;;;16.04;20.87
13478;BME280;12598;62.382;17.344;2022-12-07T00:46:47;100673.81;;;16.08;20.49
13478;BME280;12598;62.382;17.344;2022-12-07T00:47:49;100683.63;;;16.08;20.93
13478;BME280;12598;62.382;17.344;2022-12-07T00:48:51;100683.63;;;16.08;20.71
13478;BME280;12598;62.382;17.344;2022-12-07T00:49:53;100680.94;;;16.08;20.94
13478;BME280;12598;62.382;17.344;2022-12-07T00:50:55;100680.13;;;16.07;20.78
13478;BME280;12598;62.382;17.344;2022-12-07T00:51:57;100683.63;;;16.08;20.59
13478;BME280;12598;62.382;17.344;2022-12-07T00:52:59;100687.16;;;16.08;20.83
13478;BME280;12598;62.382;17.344;2022-12-07T00:54:01;100686.44;;;16.06;20.74
13478;BME280;12598;62.382;17.344;2022-12-07T00:55:03;100681.94;;;16.07;20.74
13478;BME280;12598;62.382;17.344;2022-12-07T00:56:11;100681.94;;;16.07;21.04
13478;BME280;12598;62.382;17.344;2022-12-07T00:57:13;100687.16;;;16.08;20.96
13478;BME280;12598;62.382;17.344;2022-12-07T00:58:15;100678.44;;;16.06;20.48
13478;BME280;12598;62.382;17.344;2022-12-07T00:59:16;100679.41;;;16.05;20.59
13478;BME280;12598;62.382;17.344;2022-12-07T01:00:18;100677.56;;;16.06;20.96
13478;BME280;12598;62.382;17.344;2022-12-07T01:01:20;100678.56;;;16.05;21.13
13478;BME280;12598;62.382;17.344;2022-12-07T01:02:22;100679.53;;;16.04;20.88
13478;BME280;12598;62.382;17.344;2022-12-07T01:03:24;100686.72;;;16.03;20.90
13478;BME280;12598;62.382;17.344;2022-12-07T01:04:25;100686.56;;;16.05;20.67
13478;BME280;12598;62.382;17.344;2022-12-07T01:05:27;100685.03;;;16.02;20.57
13478;BME280;12598;62.382;17.344;2022-12-07T01:06:30;100693.03;;;16.02;20.79
13478;BME280;12598;62.382;17.344;2022-12-07T01:07:31;100681.78;;;15.99;20.66
13478;BME280;12598;62.382;17.344;2022-12-07T01:08:33;100679.97;;;15.99;20.61
13478;BME280;12598;62.382;17.344;2022-12-07T01:09:35;100684.16;;;16.02;20.56
13478;BME280;12598;62.382;17.344;2022-12-07T01:10:37;100686.84;;;16.02;20.77
13478;BME280;12598;62.382;17.344;2022-12-07T01:11:39;100677.16;;;16.01;20.57
13478;BME280;12598;62.382;17.344;2022-12-07T01:12:41;100684.16;;;16.02;21.08
13478;BME280;12598;62.382;17.344;2022-12-07T01:13:42;100678.84;;;16.02;20.58
13478;BME280;12598;62.382;17.344;2022-12-07T01:14:44;100677.16;;;16.01;20.81
13478;BME280;12598;62.382;17.344;2022-12-07T01:15:46;100678.13;;;16.00;20.71
13478;BME280;12598;62.382;17.344;2022-12-07T01:16:48;100677.41;;;15.98;20.83
13478;BME280;12598;62.382;17.344;2022-12-07T01:17:50;100669.16;;;16.01;20.49
13478;BME280;12598;62.382;17.344;2022-12-07T01:18:53;100668.84;;;15.94;20.93
13478;BME280;12598;62.382;17.344;2022-12-07T01:19:55;100671.81;;;16.01;20.51
13478;BME280;12598;62.382;17.344;2022-12-07T01:21:02;100667.47;;;16.00;20.80
13478;BME280;12598;62.382;17.344;2022-12-07T01:22:05;100678.84;;;16.02;20.82
13478;BME280;12598;62.382;17.344;2022-12-07T01:23:06;100676.31;;;16.00;21.09
13478;BME280;12598;62.382;17.344;2022-12-07T01:24:10;100668.44;;;15.99;21.04
13478;BME280;12598;62.382;17.344;2022-12-07T01:25:12;100671.09;;;15.99;21.03
13478;BME280;12598;62.382;17.344;2022-12-07T01:26:16;100669.56;;;15.96;20.73
13478;BME280;12598;62.382;17.344;2022-12-07T01:27:18;100682.63;;;15.99;20.70
13478;BME280;12598;62.382;17.344;2022-12-07T01:28:20;100669.41;;;15.98;20.72
13478;BME280;12598;62.382;17.344;2022-12-07T01:29:21;100675.72;;;15.97;20.50
13478;BME280;12598;62.382;17.344;2022-12-07T01:30:23;100665.94;;;15.97;20.87
13478;BME280;12598;62.382;17.344;2022-12-07T01:31:26;100674.06;;;15.96;20.89
13478;BME280;12598;62.382;17.344;2022-12-07T01:32:28;100674.91;;;15.96;20.91
13478;BME280;12598;62.382;17.344;2022-12-07T01:33:32;100679.38;;;15.96;20.47
13478;BME280;12598;62.382;17.344;2022-12-07T01:34:34;100668.41;;;15.89;20.79
13478;BME280;12598;62.382;17.344;2022-12-07T01:35:36;100683.72;;;15.97;20.88
13478;BME280;12598;62.382;17.344;2022-12-07T01:36:38;100680.25;;;15.96;20.67
13478;BME280;12598;62.382;17.344;2022-12-07T01:37:39;100684.72;;;15.96;20.77
13478;BME280;12598;62.382;17.344;2022-12-07T01:38:42;100679.38;;;15.96;20.76
13478;BME280;12598;62.382;17.344;2022-12-07T01:39:44;100667.97;;;15.84;20.73
13478;BME280;12598;62.382;17.344;2022-12-07T01:40:53;100679.38;;;15.96;21.00
13478;BME280;12598;62.382;17.344;2022-12-07T01:41:55;100674.75;;;15.98;20.74
13478;BME280;12598;62.382;17.344;2022-12-07T01:42:57;100673.94;;;15.97;20.92
13478;BME280;12598;62.382;17.344;2022-12-07T01:44:17;100677.41;;;15.98;20.54
13478;BME280;12598;62.382;17.344;2022-12-07T01:45:40;100672.53;;;16.03;20.46
13478;BME280;12598;62.382;17.344;2022-12-07T01:46:45;100679.69;;;16.02;20.65
13478;BME280;12598;62.382;17.344;2022-12-07T01:47:51;100668.59;;;15.97;20.70
13478;BME280;12598;62.382;17.344;2022-12-07T01:48:54;100654.94;;;15.91;20.68
13478;BME280;12598;62.382;17.344;2022-12-07T01:49:57;100667.31;;;15.92;20.75
13478;BME280;12598;62.382;17.344;2022-12-07T01:51:04;100670.69;;;15.94;20.77
13478;BME280;12598;62.382;17.344;2022-12-07T01:52:31;100664.38;;;15.95;20.65
13478;BME280;12598;62.382;17.344;2022-12-07T01:53:36;100675.63;;;15.98;20.37
13478;BME280;12598;62.382;17.344;2022-12-07T01:54:40;100669.41;;;15.98;20.81
13478;BME280;12598;62.382;17.344;2022-12-07T01:55:46;100665.34;;;15.94;20.59
13478;BME280;12598;62.382;17.344;2022-12-07T01:56:52;100666.31;;;15.93;20.72
13478;BME280;12598;62.382;17.344;2022-12-07T01:57:56;100661.38;;;15.88;20.75
13478;BME280;12598;62.382;17.344;2022-12-07T01:59:00;100654.53;;;15.86;20.72
13478;BME280;12598;62.382;17.344;2022-12-07T02:00:05;100658.72;;;15.88;20.75
13478;BME280;12598;62.382;17.344;2022-12-07T02:01:15;100668.13;;;15.92;20.50
13478;BME280;12598;62.382;17.344;2022-12-07T02:02:24;100671.22;;;15.88;20.43
13478;BME280;12598;62.382;17.344;2022-12-07T02:03:33;100671.06;;;15.89;20.57
13478;BME280;12598;62.382;17.344;2022-12-07T02:04:37;100668.41;;;15.89;20.60
13478;BME280;12598;62.382;17.344;2022-12-07T02:05:40;100670.38;;;15.87;20.60
13478;BME280;12598;62.382;17.344;2022-12-07T02:06:43;100678.50;;;15.86;20.81
13478;BME280;12598;62.382;17.344;2022-12-07T02:07:47;100670.63;;;15.84;20.53
13478;BME280;12598;62.382;17.344;2022-12-07T02:08:49;100681.31;;;15.84;20.72
13478;BME280;12598;62.382;17.344;2022-12-07T02:09:51;100680.47;;;15.84;20.77
13478;BME280;12598;62.382;17.344;2022-12-07T02:10:54;100675.16;;;15.84;20.35
13478;BME280;12598;62.382;17.344;2022-12-07T02:11:59;100651.97;;;15.75;20.64
13478;BME280;12598;62.382;17.344;2022-12-07T02:13:11;100657.16;;;15.76;20.55
13478;BME280;12598;62.382;17.344;2022-12-07T02:14:13;100668.81;;;15.85;20.87
13478;BME280;12598;62.382;17.344;2022-12-07T02:15:15;100664.59;;;15.82;20.60
13478;BME280;12598;62.382;17.344;2022-12-07T02:20:18;100664.47;;;15.93;20.79
13478;BME280;12598;62.382;17.344;2022-12-07T02:20:58;100664.47;;;15.93;20.56
13478;BME280;12598;62.382;17.344;2022-12-07T02:22:22;100667.56;;;15.89;20.56
13478;BME280;12598;62.382;17.344;2022-12-07T02:23:38;100660.41;;;15.89;20.67
13478;BME280;12598;62.382;17.344;2022-12-07T02:25:00;100663.06;;;15.89;20.72
13478;BME280;12598;62.382;17.344;2022-12-07T02:27:39;100669.38;;;15.88;20.66
13478;BME280;12598;62.382;17.344;2022-12-07T02:30:19;100665.88;;;15.88;20.56
13478;BME280;12598;62.382;17.344;2022-12-07T02:31:23;100665.31;;;15.84;20.61
13478;BME280;12598;62.382;17.344;2022-12-07T02:33:44;100659.41;;;15.81;20.59
13478;BME280;12598;62.382;17.344;2022-12-07T02:34:55;100664.16;;;15.77;20.33
13478;BME280;12598;62.382;17.344;2022-12-07T02:37:12;100651.00;;;15.76;20.56
13478;BME280;12598;62.382;17.344;2022-12-07T02:39:54;100653.09;;;15.82;20.06
13478;BME280;12598;62.382;17.344;2022-12-07T02:41:24;100656.47;;;15.84;20.51
13478;BME280;12598;62.382;17.344;2022-12-07T02:42:36;100649.59;;;15.81;20.62
13478;BME280;12598;62.382;17.344;2022-12-07T02:43:46;100657.72;;;15.80;20.46
13478;BME280;12598;62.382;17.344;2022-12-07T02:44:50;100661.50;;;15.77;20.23
13478;BME280;12598;62.382;17.344;2022-12-07T02:45:55;100655.63;;;15.74;20.72
13478;BME280;12598;62.382;17.344;2022-12-07T02:47:03;100641.13;;;15.67;20.57
13478;BME280;12598;62.382;17.344;2022-12-07T02:48:07;100656.56;;;15.73;20.33
13478;BME280;12598;62.382;17.344;2022-12-07T02:49:11;100645.06;;;15.72;20.49
13478;BME280;12598;62.382;17.344;2022-12-07T02:50:13;100651.50;;;15.70;20.47
13478;BME280;12598;62.382;17.344;2022-12-07T02:51:17;100649.81;;;15.69;20.56
13478;BME280;12598;62.382;17.344;2022-12-07T02:52:19;100636.22;;;15.62;20.64
13478;BME280;12598;62.382;17.344;2022-12-07T02:53:47;100643.97;;;15.75;20.34
13478;BME280;12598;62.382;17.344;2022-12-07T02:54:49;100641.53;;;15.72;20.26
13478;BME280;12598;62.382;17.344;2022-12-07T02:55:51;100652.09;;;15.73;20.80
13478;BME280;12598;62.382;17.344;2022-12-07T03:01:03;100643.97;;;15.75;20.53
13478;BME280;12598;62.382;17.344;2022-12-07T03:03:20;100640.56;;;15.73;20.34
13478;BME280;12598;62.382;17.344;2022-12-07T03:05:45;100644.22;;;15.72;20.79
13478;BME280;12598;62.382;17.344;2022-12-07T03:06:53;100649.53;;;15.72;20.56
13478;BME280;12598;62.382;17.344;2022-12-07T03:09:33;100642.41;;;15.72;20.52
13478;BME280;12598;62.382;17.344;2022-12-07T03:11:56;100640.84;;;15.70;20.27
13478;BME280;12598;62.382;17.344;2022-12-07T03:14:30;100622.88;;;15.72;20.34
13478;BME280;12598;62.382;17.344;2022-12-07T03:15:50;100623.03;;;15.70;20.34
13478;BME280;12598;62.382;17.344;2022-12-07T03:17:07;100614.47;;;15.67;20.29
13478;BME280;12598;62.382;17.344;2022-12-07T03:18:13;100625.72;;;15.70;20.31
13478;BME280;12598;62.382;17.344;2022-12-07T03:19:20;100622.47;;;15.67;20.36
13478;BME280;12598;62.382;17.344;2022-12-07T03:20:24;100622.72;;;15.64;20.62
13478;BME280;12598;62.382;17.344;2022-12-07T03:21:32;100632.56;;;15.63;20.48
13478;BME280;12598;62.382;17.344;2022-12-07T03:22:37;100628.22;;;15.62;20.75
13478;BME280;12598;62.382;17.344;2022-12-07T03:23:42;100627.34;;;15.62;20.82
13478;BME280;12598;62.382;17.344;2022-12-07T03:24:51;100625.66;;;15.61;20.59
13478;BME280;12598;62.382;17.344;2022-12-07T03:25:57;100624.13;;;15.58;20.50
13478;BME280;12598;62.382;17.344;2022-12-07T03:27:06;100611.47;;;15.51;20.68
13478;BME280;12598;62.382;17.344;2022-12-07T03:28:11;100624.84;;;15.60;20.73
13478;BME280;12598;62.382;17.344;2022-12-07T03:29:24;100611.59;;;15.49;20.51
13478;BME280;12598;62.382;17.344;2022-12-07T03:30:42;100621.03;;;15.63;20.25
13478;BME280;12598;62.382;17.344;2022-12-07T03:31:51;100622.88;;;15.62;20.53
13478;BME280;12598;62.382;17.344;2022-12-07T03:34:31;100618.38;;;15.63;20.50
13478;BME280;12598;62.382;17.344;2022-12-07T03:35:40;100622.88;;;15.62;20.56
13478;BME280;12598;62.382;17.344;2022-12-07T03:36:55;100617.66;;;15.61;20.61
13478;BME280;12598;62.382;17.344;2022-12-07T03:37:59;100622.88;;;15.62;20.51
13478;BME280;12598;62.382;17.344;2022-12-07T03:39:31;100623.28;;;15.58;20.94
13478;BME280;12598;62.382;17.344;2022-12-07T03:40:37;100622.88;;;15.62;20.54
13478;BME280;12598;62.382;17.344;2022-12-07T03:41:41;100625.66;;;15.61;20.47
13478;BME280;12598;62.382;17.344;2022-12-07T03:42:46;100618.91;;;15.57;20.67
13478;BME280;12598;62.382;17.344;2022-12-07T03:43:48;100627.91;;;15.56;20.71
13478;BME280;12598;62.382;17.344;2022-12-07T03:44:50;100624.53;;;15.54;20.61
13478;BME280;12598;62.382;17.344;2022-12-07T03:46:27;100625.94;;;15.58;20.68
13478;BME280;12598;62.382;17.344;2022-12-07T03:49:58;100619.78;;;15.57;20.43
13478;BME280;12598;62.382;17.344;2022-12-07T03:52:34;100626.53;;;15.61;20.41
13478;BME280;12598;62.382;17.344;2022-12-07T03:53:42;100612.19;;;15.53;20.73
13478;BME280;12598;62.382;17.344;2022-12-07T03:54:52;100613.28;;;15.50;20.75
13478;BME280;12598;62.382;17.344;2022-12-07T03:55:58;100611.34;;;15.52;20.43
13478;BME280;12598;62.382;17.344;2022-12-07T03:57:01;100626.22;;;15.55;20.60
13478;BME280;12598;62.382;17.344;2022-12-07T03:58:11;100621.16;;;15.52;20.80
13478;BME280;12598;62.382;17.344;2022-12-07T03:59:14;100622.97;;;15.51;20.68
13478;BME280;12598;62.382;17.344;2022-12-07T04:00:17;100591.78;;;15.33;20.43
13478;BME280;12598;62.382;17.344;2022-12-07T04:01:20;100616.81;;;15.51;20.46
13478;BME280;12598;62.382;17.344;2022-12-07T04:02:22;100624.78;;;15.51;20.54
13478;BME280;12598;62.382;17.344;2022-12-07T04:03:24;100610.59;;;15.41;20.84
13478;BME280;12598;62.382;17.344;2022-12-07T04:04:26;100625.78;;;15.50;20.57
13478;BME280;12598;62.382;17.344;2022-12-07T04:05:29;100615.13;;;15.50;20.68
13478;BME280;12598;62.382;17.344;2022-12-07T04:06:30;100609.88;;;15.39;20.61
13478;BME280;12598;62.382;17.344;2022-12-07T04:07:32;100626.75;;;15.49;20.54
13478;BME280;12598;62.382;17.344;2022-12-07T04:08:34;100626.75;;;15.49;20.69
13478;BME280;12598;62.382;17.344;2022-12-07T04:09:36;100615.66;;;15.44;20.64
13478;BME280;12598;62.382;17.344;2022-12-07T04:10:38;100625.06;;;15.48;20.63
13478;BME280;12598;62.382;17.344;2022-12-07T04:11:40;100630.41;;;15.48;20.45
13478;BME280;12598;62.382;17.344;2022-12-07T04:12:42;100628.72;;;15.47;20.59
13478;BME280;12598;62.382;17.344;2022-12-07T04:13:44;100609.88;;;15.39;20.51
13478;BME280;12598;62.382;17.344;2022-12-07T04:15:04;100629.41;;;15.49;20.36
13478;BME280;12598;62.382;17.344;2022-12-07T04:16:06;100630.13;;;15.51;20.59
13478;BME280;12598;62.382;17.344;2022-12-07T04:17:09;100626.75;;;15.49;20.61
13478;BME280;12598;62.382;17.344;2022-12-07T04:18:10;100626.31;;;15.44;20.62
13478;BME280;12598;62.382;17.344;2022-12-07T04:19:13;100626.16;;;15.45;20.83
13478;BME280;12598;62.382;17.344;2022-12-07T04:20:15;100620.28;;;15.42;20.38
13478;BME280;12598;62.382;17.344;2022-12-07T04:21:16;100630.66;;;15.45;20.44
13478;BME280;12598;62.382;17.344;2022-12-07T04:22:18;100626.16;;;15.45;20.64
13478;BME280;12598;62.382;17.344;2022-12-07T04:23:20;100621.81;;;15.44;20.16
13478;BME280;12598;62.382;17.344;2022-12-07T04:24:22;100622.94;;;15.42;20.50
13478;BME280;12598;62.382;17.344;2022-12-07T04:25:24;100624.47;;;15.44;20.24
13478;BME280;12598;62.382;17.344;2022-12-07T04:26:26;100622.66;;;15.45;20.10
13478;BME280;12598;62.382;17.344;2022-12-07T04:27:28;100621.81;;;15.44;20.63
13478;BME280;12598;62.382;17.344;2022-12-07T04:28:30;100620.13;;;15.43;20.45
13478;BME280;12598;62.382;17.344;2022-12-07T04:29:31;100613.97;;;15.43;20.66
13478;BME280;12598;62.382;17.344;2022-12-07T04:30:33;100613.97;;;15.43;20.39
13478;BME280;12598;62.382;17.344;2022-12-07T04:31:35;100609.63;;;15.42;20.47
13478;BME280;12598;62.382;17.344;2022-12-07T04:32:37;100612.28;;;15.42;20.38
13478;BME280;12598;62.382;17.344;2022-12-07T04:33:39;100614.94;;;15.42;20.61
13478;BME280;12598;62.382;17.344;2022-12-07T04:34:41;100585.00;;;15.29;20.17
13478;BME280;12598;62.382;17.344;2022-12-07T04:35:43;100609.75;;;15.40;20.26
13478;BME280;12598;62.382;17.344;2022-12-07T04:36:46;100608.91;;;15.40;20.39
13478;BME280;12598;62.382;17.344;2022-12-07T04:37:47;100602.59;;;15.41;20.56
13478;BME280;12598;62.382;17.344;2022-12-07T04:38:49;100607.94;;;15.41;20.41
13478;BME280;12598;62.382;17.344;2022-12-07T04:39:51;100605.28;;;15.41;20.19
13478;BME280;12598;62.382;17.344;2022-12-07T04:40:53;100601.75;;;15.40;20.35
13478;BME280;12598;62.382;17.344;2022-12-07T04:41:55;100593.91;;;15.39;20.63
13478;BME280;12598;62.382;17.344;2022-12-07T04:42:57;100601.75;;;15.40;20.74
13478;BME280;12598;62.382;17.344;2022-12-07T04:44:00;100593.03;;;15.38;20.55
13478;BME280;12598;62.382;17.344;2022-12-07T04:45:03;100587.59;;;15.40;20.64
13478;BME280;12598;62.382;17.344;2022-12-07T04:46:05;100591.09;;;15.40;20.61
13478;BME280;12598;62.382;17.344;2022-12-07T04:47:07;100580.59;;;15.39;20.47
13478;BME280;12598;62.382;17.344;2022-12-07T04:48:08;100589.41;;;15.39;20.65
13478;BME280;12598;62.382;17.344;2022-12-07T04:49:11;100589.56;;;15.38;20.59
13478;BME280;12598;62.382;17.344;2022-12-07T04:50:13;100586.03;;;15.37;20.37
13478;BME280;12598;62.382;17.344;2022-12-07T04:51:20;100579.88;;;15.37;20.39
13478;BME280;12598;62.382;17.344;2022-12-07T04:52:23;100584.06;;;15.39;20.21
13478;BME280;12598;62.382;17.344;2022-12-07T04:53:24;100578.03;;;15.37;20.54
13478;BME280;12598;62.382;17.344;2022-12-07T04:54:26;100580.72;;;15.37;20.41
13478;BME280;12598;62.382;17.344;2022-12-07T04:55:28;100584.22;;;15.38;20.46
13478;BME280;12598;62.382;17.344;2022-12-07T04:56:29;100576.25;;;15.38;20.52
13478;BME280;12598;62.382;17.344;2022-12-07T04:57:31;100575.53;;;15.36;20.61
13478;BME280;12598;62.382;17.344;2022-12-07T04:58:33;100574.56;;;15.37;20.72
13478;BME280;12598;62.382;17.344;2022-12-07T04:59:35;100578.03;;;15.37;20.38
13478;BME280;12598;62.382;17.344;2022-12-07T05:00:42;100571.19;;;15.35;20.43
13478;BME280;12598;62.382;17.344;2022-12-07T05:01:44;100557.41;;;15.30;20.45
13478;BME280;12598;62.382;17.344;2022-12-07T05:02:46;100574.56;;;15.37;20.73
13478;BME280;12598;62.382;17.344;2022-12-07T05:03:48;100575.53;;;15.36;20.42
13478;BME280;12598;62.382;17.344;2022-12-07T05:04:50;100576.34;;;15.36;20.38
13478;BME280;12598;62.382;17.344;2022-12-07T05:05:52;100560.44;;;15.25;20.67
13478;BME280;12598;62.382;17.344;2022-12-07T05:06:53;100581.84;;;15.35;20.43
13478;BME280;12598;62.382;17.344;2022-12-07T05:07:55;100580.97;;;15.34;20.54
13478;BME280;12598;62.382;17.344;2022-12-07T05:08:57;100574.81;;;15.34;20.60
13478;BME280;12598;62.382;17.344;2022-12-07T05:09:59;100569.78;;;15.31;20.52
13478;BME280;12598;62.382;17.344;2022-12-07T05:11:02;100571.19;;;15.35;20.49
13478;BME280;12598;62.382;17.344;2022-12-07T05:12:04;100570.31;;;15.34;20.23
13478;BME280;12598;62.382;17.344;2022-12-07T05:13:06;100579.28;;;15.33;20.80
13478;BME280;12598;62.382;17.344;2022-12-07T05:14:17;100579.19;;;15.35;20.73
13478;BME280;12598;62.382;17.344;2022-12-07T05:15:19;100580.00;;;15.35;20.52
13478;BME280;12598;62.382;17.344;2022-12-07T05:16:21;100586.19;;;15.36;20.71
13478;BME280;12598;62.382;17.344;2022-12-07T05:17:23;100579.28;;;15.33;20.79
13478;BME280;12598;62.382;17.344;2022-12-07T05:18:25;100578.47;;;15.33;20.59
13478;BME280;12598;62.382;17.344;2022-12-07T05:19:27;100582.94;;;15.32;20.39
13478;BME280;12598;62.382;17.344;2022-12-07T05:20:29;100585.75;;;15.31;20.65
13478;BME280;12598;62.382;17.344;2022-12-07T05:21:30;100576.63;;;15.33;20.83
13478;BME280;12598;62.382;17.344;2022-12-07T05:22:32;100580.16;;;15.34;20.45
13478;BME280;12598;62.382;17.344;2022-12-07T05:23:34;100577.50;;;15.34;20.50
13478;BME280;12598;62.382;17.344;2022-12-07T05:24:36;100581.97;;;15.33;20.47
13478;BME280;12598;62.382;17.344;2022-12-07T05:25:38;100575.81;;;15.33;20.38
13478;BME280;12598;62.382;17.344;2022-12-07T05:26:40;100571.69;;;15.29;20.59
13478;BME280;12598;62.382;17.344;2022-12-07T05:27:42;100572.28;;;15.32;20.64
13478;BME280;12598;62.382;17.344;2022-12-07T05:28:44;100573.13;;;15.33;20.76
13478;BME280;12598;62.382;17.344;2022-12-07T05:29:46;100566.94;;;15.32;20.56
13478;BME280;12598;62.382;17.344;2022-12-07T05:30:47;100574.81;;;15.34;20.51
13478;BME280;12598;62.382;17.344;2022-12-07T05:31:49;100574.13;;;15.32;20.27
13478;BME280;12598;62.382;17.344;2022-12-07T05:32:51;100575.09;;;15.31;20.82
13478;BME280;12598;62.382;17.344;2022-12-07T05:33:54;100556.22;;;15.23;20.25
13478;BME280;12598;62.382;17.344;2022-12-07T05:34:55;100575.81;;;15.33;20.35
13478;BME280;12598;62.382;17.344;2022-12-07T05:35:57;100575.09;;;15.31;20.51
13478;BME280;12598;62.382;17.344;2022-12-07T05:36:59;100573.25;;;15.31;20.10
13478;BME280;12598;62.382;17.344;2022-12-07T05:38:00;100576.78;;;15.32;20.08
13478;BME280;12598;62.382;17.344;2022-12-07T05:39:02;100567.59;;;15.25;20.38
13478;BME280;12598;62.382;17.344;2022-12-07T05:40:05;100573.38;;;15.30;20.46
13478;BME280;12598;62.382;17.344;2022-12-07T05:41:09;100577.88;;;15.29;20.44
13478;BME280;12598;62.382;17.344;2022-12-07T05:42:33;100556.56;;;15.29;20.45
13478;BME280;12598;62.382;17.344;2022-12-07T05:43:35;100573.00;;;15.34;20.25
13478;BME280;12598;62.382;17.344;2022-12-07T05:44:38;100559.59;;;15.25;20.29
13478;BME280;12598;62.382;17.344;2022-12-07T05:45:40;100572.66;;;15.28;20.34
13478;BME280;12598;62.382;17.344;2022-12-07T05:46:42;100568.28;;;15.27;20.30
13478;BME280;12598;62.382;17.344;2022-12-07T05:47:43;100573.53;;;15.28;20.03
13478;BME280;12598;62.382;17.344;2022-12-07T05:48:45;100560.13;;;15.19;20.17
13478;BME280;12598;62.382;17.344;2022-12-07T05:49:47;100560.13;;;15.19;20.22
13478;BME280;12598;62.382;17.344;2022-12-07T05:50:49;100570.66;;;15.20;20.46
13478;BME280;12598;62.382;17.344;2022-12-07T05:51:51;100568.28;;;15.27;19.98
13478;BME280;12598;62.382;17.344;2022-12-07T05:52:53;100566.16;;;15.21;20.54
13478;BME280;12598;62.382;17.344;2022-12-07T05:53:55;100571.94;;;15.26;20.11
13478;BME280;12598;62.382;17.344;2022-12-07T05:54:57;100577.41;;;15.24;20.48
13478;BME280;12598;62.382;17.344;2022-12-07T05:55:58;100573.75;;;15.25;20.12
13478;BME280;12598;62.382;17.344;2022-12-07T05:57:00;100572.78;;;15.26;20.57
13478;BME280;12598;62.382;17.344;2022-12-07T05:58:02;100572.91;;;15.25;20.31
13478;BME280;12598;62.382;17.344;2022-12-07T05:59:22;100579.56;;;15.30;20.42